createdAt,value
2022-07-27T00:02:04.314Z,28.90
2022-07-27T00:04:51.128Z,28.80
2022-07-27T00:07:37.868Z,28.80
2022-07-27T00:10:24.516Z,28.60
2022-07-27T00:13:11.162Z,28.60
2022-07-27T00:15:59.394Z,28.60
2022-07-27T00:18:45.828Z,28.30
2022-07-27T00:21:32.388Z,28.50
2022-07-27T00:24:19.056Z,28.60
2022-07-27T00:27:05.493Z,28.50
2022-07-27T00:29:52.308Z,28.10
2022-07-27T00:32:40.569Z,28.00
2022-07-27T00:35:27.724Z,28.30
2022-07-27T00:38:14.472Z,28.40
2022-07-27T00:41:00.999Z,28.30
2022-07-27T00:43:52.613Z,28.30
2022-07-27T00:46:39.653Z,28.30
2022-07-27T00:49:28.505Z,28.30
2022-07-27T00:52:15.661Z,28.50
2022-07-27T00:55:02.548Z,28.40
2022-07-27T00:57:58.352Z,28.10
2022-07-27T01:00:46.843Z,28.10
2022-07-27T01:03:33.732Z,28.30
2022-07-27T01:06:26.842Z,28.40
2022-07-27T01:09:31.792Z,28.20
2022-07-27T01:12:21.584Z,28.10
2022-07-27T01:15:09.077Z,28.20
2022-07-27T01:17:56.034Z,28.30
2022-07-27T01:20:42.940Z,28.50
2022-07-27T01:23:33.289Z,28.70
2022-07-27T01:26:20.205Z,28.70
2022-07-27T01:29:07.195Z,28.70
2022-07-27T01:31:53.922Z,28.70
2022-07-27T01:34:40.706Z,28.50
2022-07-27T01:37:27.257Z,28.40
2022-07-27T01:40:15.731Z,28.50
2022-07-27T01:43:02.456Z,28.70
2022-07-27T01:45:49.184Z,28.60
2022-07-27T01:48:35.737Z,28.60
2022-07-27T01:51:22.335Z,28.70
2022-07-27T01:54:09.373Z,28.60
2022-07-27T01:56:57.538Z,28.70
2022-07-27T01:59:43.985Z,28.60
2022-07-27T02:02:30.789Z,28.70
2022-07-27T02:05:17.656Z,28.60
2022-07-27T02:08:04.634Z,28.50
2022-07-27T02:11:08.506Z,28.40
2022-07-27T02:13:56.505Z,28.40
2022-07-27T02:16:43.120Z,28.10
2022-07-27T02:19:29.977Z,28.20
2022-07-27T02:22:17.081Z,28.00
2022-07-27T02:25:04.437Z,27.90
2022-07-27T02:27:51.308Z,27.50
2022-07-27T02:30:39.292Z,27.60
2022-07-27T02:33:25.801Z,27.70
2022-07-27T02:36:12.762Z,27.90
2022-07-27T02:38:59.785Z,27.90
2022-07-27T02:41:47.640Z,27.90
2022-07-27T02:44:35.082Z,27.80
2022-07-27T02:47:23.403Z,27.80
2022-07-27T02:50:10.797Z,27.90
2022-07-27T02:52:57.653Z,28.10
2022-07-27T02:55:44.474Z,28.20
2022-07-27T02:58:31.269Z,28.30
2022-07-27T03:01:18.001Z,28.30
2022-07-27T03:04:06.527Z,28.40
2022-07-27T03:06:53.200Z,28.40
2022-07-27T03:09:39.766Z,28.30
2022-07-27T03:12:26.681Z,28.20
2022-07-27T03:15:13.485Z,28.40
2022-07-27T03:18:00.136Z,28.40
2022-07-27T03:20:48.153Z,28.20
2022-07-27T03:23:34.926Z,28.10
2022-07-27T03:26:21.759Z,28.20
2022-07-27T03:29:08.895Z,28.50
2022-07-27T03:31:55.818Z,28.40
2022-07-27T03:34:43.948Z,28.40
2022-07-27T03:37:32.369Z,28.30
2022-07-27T03:40:19.261Z,28.50
2022-07-27T03:43:05.840Z,28.60
2022-07-27T03:45:52.326Z,28.60
2022-07-27T03:48:39.664Z,28.60
2022-07-27T03:51:26.925Z,28.70
2022-07-27T03:54:15.252Z,28.80
2022-07-27T03:57:02.184Z,28.90
2022-07-27T03:59:51.506Z,28.90
2022-07-27T04:02:40.784Z,29.00
2022-07-27T04:05:29.404Z,28.90
2022-07-27T04:08:17.544Z,28.90
2022-07-27T04:11:05.395Z,29.00
2022-07-27T04:13:56.120Z,29.20
2022-07-27T04:16:42.702Z,29.10
2022-07-27T04:19:29.353Z,28.70
2022-07-27T04:22:16.146Z,28.80
2022-07-27T04:25:02.936Z,28.50
2022-07-27T04:27:51.053Z,28.40
2022-07-27T04:30:37.660Z,28.40
2022-07-27T04:33:24.227Z,28.30
2022-07-27T04:36:10.962Z,28.30
2022-07-27T04:38:59.775Z,28.10
2022-07-27T04:41:46.985Z,28.10
2022-07-27T04:44:35.190Z,28.10
2022-07-27T04:47:21.752Z,27.90
2022-07-27T04:50:10.065Z,28.10
2022-07-27T04:52:57.877Z,28.30
2022-07-27T04:55:46.852Z,28.30
2022-07-27T04:58:33.506Z,28.50
2022-07-27T05:01:22.963Z,28.40
2022-07-27T05:04:09.881Z,28.90
2022-07-27T05:06:56.284Z,29.00
2022-07-27T05:09:43.365Z,29.20
2022-07-27T05:12:30.198Z,29.10
2022-07-27T05:15:17.538Z,29.10
2022-07-27T05:18:05.601Z,28.90
2022-07-27T05:20:52.384Z,28.90
2022-07-27T05:23:39.164Z,29.00
2022-07-27T05:26:26.269Z,29.20
2022-07-27T05:29:13.573Z,29.30
2022-07-27T05:32:00.579Z,29.40
2022-07-27T05:34:48.503Z,29.10
2022-07-27T05:37:35.397Z,28.80
2022-07-27T05:40:22.091Z,28.60
2022-07-27T05:43:08.603Z,28.60
2022-07-27T05:45:55.891Z,28.60
2022-07-27T05:48:42.349Z,28.70
2022-07-27T05:51:31.525Z,28.50
2022-07-27T05:54:19.459Z,28.50
2022-07-27T05:57:06.315Z,28.50
2022-07-27T05:59:54.501Z,28.70
2022-07-27T06:02:41.656Z,28.70
2022-07-27T06:05:28.333Z,29.00
2022-07-27T06:08:15.515Z,29.20
2022-07-27T06:11:02.012Z,29.40
2022-07-27T06:13:50.603Z,29.60
2022-07-27T06:16:37.636Z,29.70
2022-07-27T06:19:24.408Z,29.60
2022-07-27T06:22:22.838Z,29.70
2022-07-27T06:25:11.121Z,30.00
2022-07-27T06:27:57.691Z,30.20
2022-07-27T06:30:44.305Z,30.50
2022-07-27T06:33:31.674Z,30.50
2022-07-27T06:36:18.177Z,30.50
2022-07-27T06:39:04.908Z,30.00
2022-07-27T06:41:57.920Z,30.10
2022-07-27T06:44:45.227Z,30.40
2022-07-27T06:47:31.775Z,30.60
2022-07-27T06:50:22.166Z,30.60
2022-07-27T06:53:08.893Z,30.50
2022-07-27T06:55:55.817Z,30.60
2022-07-27T06:58:43.657Z,30.70
2022-07-27T07:01:30.508Z,30.80
2022-07-27T07:04:17.743Z,31.20
2022-07-27T07:07:10.472Z,31.40
2022-07-27T07:09:57.013Z,31.20
2022-07-27T07:12:43.953Z,30.80
2022-07-27T07:15:34.212Z,30.60
2022-07-27T07:18:20.904Z,30.60
2022-07-27T07:21:08.102Z,30.60
2022-07-27T07:23:54.586Z,30.60
2022-07-27T07:26:41.190Z,31.20
2022-07-27T07:29:28.013Z,31.20
2022-07-27T07:32:16.261Z,31.30
2022-07-27T07:35:03.977Z,31.30
2022-07-27T07:37:50.932Z,31.00
2022-07-27T07:40:45.320Z,30.80
2022-07-27T07:43:32.077Z,30.80
2022-07-27T07:46:19.125Z,30.90
2022-07-27T07:49:07.236Z,31.00
2022-07-27T07:51:53.832Z,30.70
2022-07-27T07:54:40.540Z,31.30
2022-07-27T07:57:28.030Z,31.40
2022-07-27T08:00:15.606Z,31.50
2022-07-27T08:03:02.419Z,31.50
2022-07-27T08:05:50.927Z,31.40
2022-07-27T08:08:37.862Z,31.50
2022-07-27T08:11:24.381Z,31.60
2022-07-27T08:14:11.267Z,31.90
2022-07-27T08:16:57.842Z,31.80
2022-07-27T08:19:44.550Z,32.20
2022-07-27T08:22:32.521Z,32.40
2022-07-27T08:25:20.338Z,32.80
2022-07-27T08:28:07.596Z,32.80
2022-07-27T08:30:57.340Z,32.90
2022-07-27T08:33:44.104Z,32.70
2022-07-27T08:36:30.942Z,32.60
2022-07-27T08:39:52.967Z,32.50
2022-07-27T08:42:25.795Z,32.50
2022-07-27T08:45:16.053Z,32.70
2022-07-27T08:48:03.134Z,32.50
2022-07-27T08:50:50.352Z,33.00
2022-07-27T08:53:53.023Z,32.90
2022-07-27T08:56:41.873Z,33.10
2022-07-27T08:59:29.574Z,33.10
2022-07-27T09:02:16.694Z,33.00
2022-07-27T09:05:05.627Z,33.10
2022-07-27T09:07:52.989Z,33.00
2022-07-27T09:10:40.281Z,33.20
2022-07-27T09:13:30.068Z,33.00
2022-07-27T09:16:19.062Z,33.00
2022-07-27T09:19:08.216Z,32.70
2022-07-27T09:21:56.979Z,32.90
2022-07-27T09:25:02.884Z,33.00
2022-07-27T09:27:54.065Z,32.80
2022-07-27T09:30:44.242Z,32.90
2022-07-27T09:33:32.825Z,32.80
2022-07-27T09:36:22.819Z,32.90
2022-07-27T09:39:09.292Z,32.60
2022-07-27T09:41:57.678Z,32.70
2022-07-27T09:44:53.168Z,32.40
2022-07-27T09:47:42.028Z,32.40
2022-07-27T09:50:32.393Z,32.80
2022-07-27T09:53:42.533Z,32.70
2022-07-27T09:56:31.695Z,32.80
2022-07-27T09:59:20.296Z,32.70
2022-07-27T10:02:07.252Z,32.50
2022-07-27T10:04:56.506Z,32.60
2022-07-27T10:07:43.602Z,32.60
2022-07-27T10:10:30.623Z,32.80
2022-07-27T10:13:17.077Z,32.80
2022-07-27T10:16:05.760Z,32.70
2022-07-27T10:19:01.166Z,32.80
2022-07-27T10:21:50.897Z,33.20
2022-07-27T10:24:37.634Z,33.30
2022-07-27T10:27:28.986Z,33.50
2022-07-27T10:30:17.042Z,34.20
2022-07-27T10:33:15.790Z,33.90
2022-07-27T10:36:04.175Z,34.00
2022-07-27T10:38:56.430Z,33.90
2022-07-27T10:41:43.804Z,34.00
2022-07-27T10:44:31.418Z,34.40
2022-07-27T10:47:30.121Z,34.50
2022-07-27T10:50:32.310Z,34.80
2022-07-27T10:53:55.116Z,35.00
2022-07-27T10:56:49.711Z,35.30
2022-07-27T11:00:10.170Z,35.00
2022-07-27T11:02:59.517Z,34.90
2022-07-27T11:06:01.991Z,34.40
2022-07-27T11:09:53.141Z,34.60
2022-07-27T11:12:11.552Z,34.50
2022-07-27T11:14:59.681Z,34.70
2022-07-27T11:17:59.381Z,34.90
2022-07-27T11:20:50.221Z,34.90
2022-07-27T11:23:52.410Z,35.10
2022-07-27T11:26:41.620Z,35.50
2022-07-27T11:29:33.873Z,35.70
2022-07-27T11:32:36.508Z,35.80
2022-07-27T11:35:26.052Z,36.10
2022-07-27T11:38:12.614Z,35.90
2022-07-27T11:41:12.785Z,35.80
2022-07-27T11:44:07.929Z,35.30
2022-07-27T11:47:01.733Z,35.10
2022-07-27T11:49:48.898Z,35.00
2022-07-27T11:52:35.537Z,35.10
2022-07-27T11:55:22.103Z,35.20
2022-07-27T11:58:09.021Z,35.10
2022-07-27T12:00:55.969Z,35.00
2022-07-27T12:03:47.236Z,34.80
2022-07-27T12:06:38.884Z,35.10
2022-07-27T12:09:26.544Z,34.90
2022-07-27T12:12:20.127Z,34.80
2022-07-27T12:18:24.761Z,34.60
2022-07-27T12:21:18.836Z,34.50
2022-07-27T12:24:06.022Z,34.30
2022-07-27T12:27:07.100Z,34.10
2022-07-27T12:29:59.265Z,34.40
2022-07-27T12:32:46.520Z,34.70
2022-07-27T12:35:38.812Z,34.60
2022-07-27T12:38:38.567Z,34.70
2022-07-27T12:41:26.562Z,34.50
2022-07-27T12:44:15.654Z,34.40
2022-07-27T12:47:27.811Z,34.90
2022-07-27T12:50:16.887Z,34.70
2022-07-27T12:53:03.868Z,34.20
2022-07-27T12:55:51.892Z,34.20
2022-07-27T12:58:57.897Z,34.50
2022-07-27T13:01:44.820Z,34.30
2022-07-27T13:04:31.655Z,34.10
2022-07-27T13:07:19.591Z,34.30
2022-07-27T13:10:08.103Z,34.60
2022-07-27T13:12:56.504Z,35.00
2022-07-27T13:15:43.190Z,34.80
2022-07-27T13:18:29.855Z,34.60
2022-07-27T13:21:16.336Z,35.00
2022-07-27T13:24:03.253Z,34.90
2022-07-27T13:26:50.369Z,34.50
2022-07-27T13:29:38.558Z,34.40
2022-07-27T13:32:26.350Z,34.70
2022-07-27T13:35:13.534Z,34.90
2022-07-27T13:38:03.336Z,34.90
2022-07-27T13:40:50.174Z,35.30
2022-07-27T13:43:36.937Z,35.40
2022-07-27T13:46:25.220Z,35.80
2022-07-27T13:49:12.670Z,35.80
2022-07-27T13:52:01.848Z,35.90
2022-07-27T13:54:48.444Z,35.90
2022-07-27T13:57:35.500Z,35.70
2022-07-27T14:00:22.382Z,36.10
2022-07-27T14:03:11.465Z,36.10
2022-07-27T14:05:58.271Z,36.00
2022-07-27T14:08:46.979Z,35.60
2022-07-27T14:11:34.357Z,35.20
2022-07-27T14:14:21.772Z,35.50
2022-07-27T14:17:13.904Z,35.40
2022-07-27T14:20:02.125Z,35.30
2022-07-27T14:22:50.305Z,35.30
2022-07-27T14:25:36.768Z,35.40
2022-07-27T14:28:24.372Z,35.30
2022-07-27T14:31:13.100Z,35.60
2022-07-27T14:33:59.514Z,35.90
2022-07-27T14:36:47.656Z,36.20
2022-07-27T14:39:34.248Z,36.20
2022-07-27T14:42:23.652Z,35.60
2022-07-27T14:45:11.611Z,35.90
2022-07-27T14:47:58.428Z,35.40
2022-07-27T14:50:45.543Z,35.50
2022-07-27T14:53:33.676Z,35.60
2022-07-27T14:56:20.544Z,35.50
2022-07-27T14:59:07.033Z,35.40
2022-07-27T15:01:54.227Z,35.50
2022-07-27T15:04:41.076Z,35.20
2022-07-27T15:07:27.577Z,35.60
2022-07-27T15:10:15.625Z,35.80
2022-07-27T15:13:03.972Z,36.20
2022-07-27T15:15:52.724Z,36.40
2022-07-27T15:18:39.764Z,36.40
2022-07-27T15:21:26.774Z,36.60
2022-07-27T15:24:14.533Z,36.90
2022-07-27T15:27:02.653Z,36.80
2022-07-27T15:29:49.760Z,37.10
2022-07-27T15:32:36.473Z,37.20
2022-07-27T15:35:23.355Z,37.30
2022-07-27T15:38:10.049Z,37.20
2022-07-27T15:40:56.802Z,37.00
2022-07-27T15:43:48.623Z,37.40
2022-07-27T15:46:35.540Z,37.50
2022-07-27T15:49:22.200Z,37.50
2022-07-27T15:52:09.221Z,37.10
2022-07-27T15:54:55.946Z,37.10
2022-07-27T15:57:43.045Z,37.30
2022-07-27T16:00:35.530Z,37.40
2022-07-27T16:03:26.926Z,37.70
2022-07-27T16:06:15.829Z,37.20
2022-07-27T16:09:02.576Z,37.00
2022-07-27T16:11:49.395Z,37.20
2022-07-27T16:14:35.970Z,37.10
2022-07-27T16:17:24.268Z,37.40
2022-07-27T16:20:11.534Z,37.00
2022-07-27T16:22:58.087Z,36.90
2022-07-27T16:26:02.715Z,36.90
2022-07-27T16:28:53.205Z,37.10
2022-07-27T16:31:39.934Z,37.10
2022-07-27T16:34:29.451Z,37.20
2022-07-27T16:37:16.109Z,37.10
2022-07-27T16:40:02.853Z,37.10
2022-07-27T16:42:49.412Z,36.90
2022-07-27T16:45:35.947Z,36.80
2022-07-27T16:48:22.895Z,36.70
2022-07-27T16:51:11.820Z,36.60
2022-07-27T16:53:58.222Z,36.70
2022-07-27T16:56:44.755Z,36.40
2022-07-27T16:59:31.468Z,36.50
2022-07-27T17:02:18.802Z,36.30
2022-07-27T17:05:06.627Z,36.10
2022-07-27T17:07:55.061Z,35.80
2022-07-27T17:10:42.116Z,35.40
2022-07-27T17:13:33.679Z,35.00
2022-07-27T17:16:21.221Z,35.10
2022-07-27T17:19:07.874Z,35.10
2022-07-27T17:21:54.580Z,35.20
2022-07-27T17:24:42.549Z,35.10
2022-07-27T17:27:31.408Z,35.00
2022-07-27T17:30:18.493Z,35.00
2022-07-27T17:33:05.382Z,34.60
2022-07-27T17:35:51.975Z,34.70
2022-07-27T17:38:42.150Z,34.10
2022-07-27T17:41:31.853Z,34.40
2022-07-27T17:44:18.509Z,34.70
2022-07-27T17:47:05.644Z,34.70
2022-07-27T17:49:52.309Z,34.50
2022-07-27T17:52:40.698Z,34.40
2022-07-27T17:55:27.281Z,34.50
2022-07-27T17:58:17.005Z,34.30
2022-07-27T18:01:04.042Z,34.30
2022-07-27T18:03:50.919Z,34.10
2022-07-27T18:06:37.670Z,33.60
2022-07-27T18:09:24.369Z,33.50
2022-07-27T18:12:11.178Z,33.60
2022-07-27T18:15:16.794Z,33.50
2022-07-27T18:18:04.365Z,33.50
2022-07-27T18:20:53.027Z,33.40
2022-07-27T18:23:40.669Z,33.00
2022-07-27T18:26:27.251Z,32.90
2022-07-27T18:29:16.073Z,32.90
2022-07-27T18:32:04.472Z,32.90
2022-07-27T18:34:51.040Z,33.10
2022-07-27T18:37:37.857Z,33.00
2022-07-27T18:40:24.725Z,33.00
2022-07-27T18:43:11.406Z,32.90
2022-07-27T18:45:58.150Z,32.30
2022-07-27T18:48:47.055Z,32.30
2022-07-27T18:51:37.176Z,32.50
2022-07-27T18:54:24.280Z,32.30
2022-07-27T18:57:11.224Z,32.30
2022-07-27T18:59:58.053Z,32.50
2022-07-27T19:02:44.964Z,32.60
2022-07-27T19:05:41.642Z,32.60
2022-07-27T19:08:28.621Z,32.60
2022-07-27T19:11:15.717Z,32.20
2022-07-27T19:14:04.799Z,32.50
2022-07-27T19:16:51.830Z,32.30
2022-07-27T19:19:38.295Z,31.90
2022-07-27T19:22:27.288Z,32.10
2022-07-27T19:25:16.741Z,32.20
2022-07-27T19:28:03.960Z,32.50
2022-07-27T19:30:51.022Z,32.60
2022-07-27T19:33:37.926Z,32.60
2022-07-27T19:36:24.806Z,32.40
2022-07-27T19:39:17.334Z,32.20
2022-07-27T19:42:04.595Z,32.50
2022-07-27T19:44:51.467Z,32.20
2022-07-27T19:47:38.222Z,32.10
2022-07-27T19:50:24.968Z,32.30
2022-07-27T19:53:11.508Z,32.10
2022-07-27T19:56:00.279Z,32.20
2022-07-27T19:58:46.913Z,32.30
2022-07-27T20:01:34.234Z,32.50
2022-07-27T20:04:20.681Z,32.30
2022-07-27T20:07:09.888Z,32.50
2022-07-27T20:09:56.901Z,32.30
2022-07-27T20:12:44.951Z,32.30
2022-07-27T20:15:32.215Z,32.50
2022-07-27T20:18:21.816Z,32.20
2022-07-27T20:21:20.171Z,32.20
2022-07-27T20:24:10.119Z,32.30
2022-07-27T20:26:57.688Z,32.10
2022-07-27T20:29:45.655Z,32.10
2022-07-27T20:32:32.182Z,32.30
2022-07-27T20:35:19.245Z,32.60
2022-07-27T20:38:05.822Z,32.70
2022-07-27T20:40:53.877Z,32.50
2022-07-27T20:43:40.545Z,32.30
2022-07-27T20:46:28.939Z,32.30
2022-07-27T20:49:16.884Z,32.20
2022-07-27T20:52:04.331Z,32.50
2022-07-27T20:54:52.684Z,32.50
2022-07-27T20:57:39.532Z,32.20
2022-07-27T21:00:29.217Z,32.30
2022-07-27T21:03:17.925Z,32.60
2022-07-27T21:06:04.566Z,32.60
2022-07-27T21:08:51.204Z,32.50
2022-07-27T21:11:39.244Z,32.60
2022-07-27T21:14:25.692Z,32.70
2022-07-27T21:17:12.432Z,32.70
2022-07-27T21:20:00.542Z,32.70
2022-07-27T21:23:07.088Z,32.70
2022-07-27T21:25:53.566Z,32.70
2022-07-27T21:28:40.323Z,32.40
2022-07-27T21:31:29.856Z,32.80
2022-07-27T21:34:18.602Z,32.80
2022-07-27T21:37:06.505Z,32.50
2022-07-27T21:39:52.940Z,32.10
2022-07-27T21:42:39.482Z,32.10
2022-07-27T21:45:26.494Z,32.10
2022-07-27T21:48:13.088Z,32.30
2022-07-27T21:51:00.093Z,31.90
2022-07-27T21:53:48.715Z,31.90
2022-07-27T21:56:41.858Z,32.00
2022-07-27T21:59:29.735Z,31.80
2022-07-27T22:02:16.512Z,32.00
2022-07-27T22:05:03.509Z,31.80
2022-07-27T22:07:50.182Z,31.80
2022-07-27T22:10:38.730Z,31.10
2022-07-27T22:13:25.153Z,31.10
2022-07-27T22:16:13.461Z,31.00
2022-07-27T22:19:00.168Z,30.80
2022-07-27T22:21:48.691Z,30.80
2022-07-27T22:24:35.518Z,30.60
2022-07-27T22:27:23.649Z,30.40
2022-07-27T22:30:10.818Z,30.10
2022-07-27T22:32:57.696Z,30.00
2022-07-27T22:35:44.370Z,29.90
2022-07-27T22:38:31.067Z,29.80
2022-07-27T22:41:17.670Z,30.20
2022-07-27T22:44:05.996Z,30.00
2022-07-27T22:46:52.942Z,29.50
2022-07-27T22:49:39.872Z,29.50
2022-07-27T22:52:26.797Z,29.50
2022-07-27T22:55:13.515Z,29.20
2022-07-27T22:58:00.277Z,29.40
2022-07-27T23:00:48.933Z,29.70
2022-07-27T23:03:35.633Z,29.70
2022-07-27T23:06:22.235Z,29.50
2022-07-27T23:09:09.633Z,29.40
2022-07-27T23:11:56.297Z,29.40
2022-07-27T23:14:43.116Z,29.40
2022-07-27T23:17:37.237Z,29.20
2022-07-27T23:20:23.970Z,29.20
2022-07-27T23:23:16.670Z,29.30
2022-07-27T23:26:03.685Z,29.20
2022-07-27T23:28:50.490Z,29.10
2022-07-27T23:31:37.139Z,29.00
2022-07-27T23:34:28.960Z,28.90
2022-07-27T23:37:15.589Z,28.90
2022-07-27T23:40:03.512Z,28.60
2022-07-27T23:42:50.164Z,28.30
2022-07-27T23:45:37.042Z,28.30
2022-07-27T23:48:25.173Z,28.00
2022-07-27T23:51:18.732Z,28.10
2022-07-27T23:54:05.500Z,27.80
2022-07-27T23:56:52.093Z,27.60
2022-07-27T23:59:38.739Z,28.00
